Time;durP1;ratioP1;P1;durP2;ratioP2;P2;SDS_P1;SDS_P2;PMS_P1;PMS_P2;Temp;Humidity;BMP_temperature;BMP_pressure;BME280_temperature;BME280_humidity;BME280_pressure;Samples;Min_cycle;Max_cycle;Signal;HPM_P1;HPM_P2
2022/04/08 00:02:22;;;;;;;;;;;;;;;;;;5078071;28;19924;-72
2022/04/08 00:04:49;;;;;;;;;;;;;;;;;;5077995;28;19936;-72
2022/04/08 00:07:16;;;;;;;;;;;;;;;;;;5079208;28;20302;-73
2022/04/08 00:09:43;;;;;;;;;;;;;;;;;;5081712;28;20184;-73
2022/04/08 00:12:10;;;;;;;;;;;;;;;;;;5085790;28;19924;-73
2022/04/08 00:14:37;;;;;;;;;;;;;;;;;;5076368;28;19931;-72
2022/04/08 00:17:04;;;;;;;;;;;;;;;;;;5079577;28;20076;-73
2022/04/08 00:19:31;;;;;;;;;;;;;;;;;;5078806;28;19985;-72
2022/04/08 00:21:58;;;;;;;;;;;;;;;;;;5072436;28;20387;-73
2022/04/08 00:24:25;;;;;;;;;;;;;;;;;;5078547;28;19934;-73
2022/04/08 00:26:52;;;;;;;;;;;;;;;;;;5080581;28;21363;-72
2022/04/08 00:29:19;;;;;;;;;;;;;;;;;;5079291;28;19924;-72
2022/04/08 00:31:46;;;;;;;;;;;;;;;;;;5078737;28;20010;-73
2022/04/08 00:34:13;;;;;;;;;;;;;;;;;;5076055;28;19932;-72
2022/04/08 00:36:40;;;;;;;;;;;;;;;;;;5077825;28;19935;-73
2022/04/08 00:39:11;;;;;;;;;;;;;;;;;;5077440;28;20395;-73
2022/04/08 00:41:38;;;;;;;;;;;;;;;;;;5079636;28;19928;-73
2022/04/08 00:44:05;;;;;;;;;;;;;;;;;;5078824;28;20450;-73
2022/04/08 00:46:32;;;;;;;;;;;;;;;;;;5078896;28;19939;-73
2022/04/08 00:48:59;;;;;;;;;;;;;;;;;;5078129;28;21484;-75
2022/04/08 00:51:26;;;;;;;;;;;;;;;;;;5085478;28;19988;-73
2022/04/08 00:53:53;;;;;;;;;;;;;;;;;;5079117;28;20084;-73
2022/04/08 00:56:21;;;;;;;;;;;;;;;;;;5080248;28;19932;-72
2022/04/08 00:58:48;;;;;;;;;;;;;;;;;;5077771;28;19929;-73
2022/04/08 01:01:15;;;;;;;;;;;;;;;;;;5080362;28;19928;-73
2022/04/08 01:03:42;;;;;;;;;;;;;;;;;;5081438;28;19925;-72
2022/04/08 01:06:09;;;;;;;;;;;;;;;;;;5077620;28;20010;-72
2022/04/08 01:08:36;;;;;;;;;;;;;;;;;;5080760;28;20411;-72
2022/04/08 01:11:03;;;;;;;;;;;;;;;;;;5076842;28;19931;-71
2022/04/08 01:13:30;;;;;;;;;;;;;;;;;;5079484;28;19924;-72
2022/04/08 01:15:57;;;;;;;;;;;;;;;;;;5078977;28;20298;-72
2022/04/08 01:18:24;;;;;;;;;;;;;;;;;;5081307;28;21635;-73
2022/04/08 01:20:51;;;;;;;;;;;;;;;;;;5078018;28;20343;-72
2022/04/08 01:23:18;;;;;;;;;;;;;;;;;;5077376;28;19936;-72
2022/04/08 01:25:45;;;;;;;;;;;;;;;;;;5075465;28;19935;-72
2022/04/08 01:28:12;;;;;;;;;;;;;;;;;;5076400;28;20018;-71
2022/04/08 01:30:40;;;;;;;;;;;;;;;;;;5074358;28;19950;-72
2022/04/08 01:33:07;;;;;;;;;;;;;;;;;;5074839;28;19982;-72
2022/04/08 01:35:34;;;;;;;;;;;;;;;;;;5075861;28;20295;-72
2022/04/08 01:38:01;;;;;;;;;;;;;;;;;;5078833;28;19931;-71
2022/04/08 01:40:28;;;;;;;;;;;;;;;;;;5077521;28;19985;-72
2022/04/08 01:42:55;;;;;;;;;;;;;;;;;;5077205;28;20379;-72
2022/04/08 01:45:22;;;;;;;;;;;;;;;;;;5074006;28;19924;-72
2022/04/08 01:47:49;;;;;;;;;;;;;;;;;;5078609;28;19932;-71
2022/04/08 01:50:18;;;;;;;;;;;;;;;;;;5080512;28;19963;-72
2022/04/08 01:52:45;;;;;;;;;;;;;;;;;;5082482;28;19931;-75
2022/04/08 01:55:12;;;;;;;;;;;;;;;;;;5080012;28;20010;-73
2022/04/08 01:57:40;;;;;;;;;;;;;;;;;;5078369;28;19931;-72
2022/04/08 02:00:08;;;;;;;;;;;;;;;;;;5079010;28;19929;-72
2022/04/08 02:02:35;;;;;;;;;;;;;;;;;;5076354;28;20050;-72
2022/04/08 02:05:02;;;;;;;;;;;;;;;;;;5076305;28;20426;-72
2022/04/08 02:07:29;;;;;;;;;;;;;;;;;;5077425;28;19938;-73
2022/04/08 02:09:56;;;;;;;;;;;;;;;;;;5072786;28;19931;-72
2022/04/08 02:12:23;;;;;;;;;;;;;;;;;;5074134;28;20324;-71
2022/04/08 02:14:50;;;;;;;;;;;;;;;;;;5076655;28;19924;-72
2022/04/08 02:17:18;;;;;;;;;;;;;;;;;;5072181;28;20391;-72
2022/04/08 02:19:45;;;;;;;;;;;;;;;;;;5057689;28;19928;-72
2022/04/08 02:22:12;;;;;;;;;;;;;;;;;;5074386;28;19928;-72
2022/04/08 02:24:39;;;;;;;;;;;;;;;;;;5076122;28;19930;-73
2022/04/08 02:27:06;;;;;;;;;;;;;;;;;;5072858;28;19930;-72
2022/04/08 02:29:33;;;;;;;;;;;;;;;;;;5075166;28;19947;-72
2022/04/08 02:32:00;;;;;;;;;;;;;;;;;;5078963;28;20518;-72
2022/04/08 02:34:27;;;;;;;;;;;;;;;;;;5080689;28;19931;-71
2022/04/08 02:36:54;;;;;;;;;;;;;;;;;;5076347;28;19924;-72
2022/04/08 02:39:21;;;;;;;;;;;;;;;;;;5076486;28;20022;-72
2022/04/08 02:41:48;;;;;;;;;;;;;;;;;;5075103;28;19925;-72
2022/04/08 02:44:15;;;;;;;;;;;;;;;;;;5074710;28;19932;-72
2022/04/08 02:46:42;;;;;;;;;;;;;;;;;;5074286;28;19928;-72
2022/04/08 02:49:09;;;;;;;;;;;;;;;;;;5081061;28;19931;-73
2022/04/08 02:51:36;;;;;;;;;;;;;;;;;;5078918;28;20023;-74
2022/04/08 02:54:03;;;;;;;;;;;;;;;;;;5076509;28;19932;-73
2022/04/08 02:56:30;;;;;;;;;;;;;;;;;;5076359;28;19928;-73
2022/04/08 02:58:57;;;;;;;;;;;;;;;;;;5079797;28;20016;-73
2022/04/08 03:01:24;;;;;;;;;;;;;;;;;;5075366;28;19936;-71
2022/04/08 03:03:51;;;;;;;;;;;;;;;;;;5081899;28;20070;-72
2022/04/08 03:06:18;;;;;;;;;;;;;;;;;;5075933;28;19946;-73
2022/04/08 03:08:45;;;;;;;;;;;;;;;;;;5074828;28;19932;-73
2022/04/08 03:11:12;;;;;;;;;;;;;;;;;;5078166;28;19928;-73
2022/04/08 03:13:39;;;;;;;;;;;;;;;;;;5075372;28;19987;-72
2022/04/08 03:16:06;;;;;;;;;;;;;;;;;;5075767;28;19979;-73
2022/04/08 03:18:33;;;;;;;;;;;;;;;;;;5074413;28;19928;-72
2022/04/08 03:21:00;;;;;;;;;;;;;;;;;;5082303;28;19932;-73
2022/04/08 03:23:27;;;;;;;;;;;;;;;;;;5078767;28;19947;-72
2022/04/08 03:25:54;;;;;;;;;;;;;;;;;;5076176;28;20280;-75
2022/04/08 03:28:21;;;;;;;;;;;;;;;;;;5081291;28;19924;-72
2022/04/08 03:30:48;;;;;;;;;;;;;;;;;;5082187;28;19931;-72
2022/04/08 03:33:15;;;;;;;;;;;;;;;;;;5085497;28;19924;-72
2022/04/08 03:35:42;;;;;;;;;;;;;;;;;;5086565;28;20010;-74
2022/04/08 03:38:09;;;;;;;;;;;;;;;;;;5080417;28;20015;-73
2022/04/08 03:40:36;;;;;;;;;;;;;;;;;;5075001;28;19924;-73
2022/04/08 03:43:03;;;;;;;;;;;;;;;;;;5074475;28;19932;-72
2022/04/08 03:45:30;;;;;;;;;;;;;;;;;;5073593;28;19925;-73
2022/04/08 03:47:57;;;;;;;;;;;;;;;;;;5076964;28;19930;-72
2022/04/08 03:50:24;;;;;;;;;;;;;;;;;;5078668;28;19931;-72
2022/04/08 03:52:51;;;;;;;;;;;;;;;;;;5082929;28;19932;-73
2022/04/08 03:55:18;;;;;;;;;;;;;;;;;;5077166;28;19932;-72
2022/04/08 03:57:45;;;;;;;;;;;;;;;;;;5080718;28;19925;-73
2022/04/08 04:00:12;;;;;;;;;;;;;;;;;;5081794;28;19967;-73
2022/04/08 04:02:39;;;;;;;;;;;;;;;;;;5082210;28;19935;-72
2022/04/08 04:05:06;;;;;;;;;;;;;;;;;;5080595;28;19934;-73
2022/04/08 04:07:33;;;;;;;;;;;;;;;;;;5087866;28;19930;-72
2022/04/08 04:10:00;;;;;;;;;;;;;;;;;;5082455;28;20048;-72
2022/04/08 04:12:27;;;;;;;;;;;;;;;;;;5084650;28;20027;-71
2022/04/08 04:14:54;;;;;;;;;;;;;;;;;;5079025;28;19924;-72
2022/04/08 04:17:21;;;;;;;;;;;;;;;;;;5082018;28;19924;-72
2022/04/08 04:19:48;;;;;;;;;;;;;;;;;;5082380;28;20072;-73
2022/04/08 04:22:15;;;;;;;;;;;;;;;;;;5081437;28;19939;-72
2022/04/08 04:24:42;;;;;;;;;;;;;;;;;;5080451;28;20050;-72
2022/04/08 04:27:09;;;;;;;;;;;;;;;;;;5074145;28;19928;-73
2022/04/08 04:29:36;;;;;;;;;;;;;;;;;;5080153;28;20687;-74
2022/04/08 04:32:05;;;;;;;;;;;;;;;;;;5078528;28;19964;-72
2022/04/08 04:34:33;;;;;;;;;;;;;;;;;;5081439;28;19924;-73
2022/04/08 04:37:00;;;;;;;;;;;;;;;;;;5080109;28;20282;-73
2022/04/08 04:39:27;;;;;;;;;;;;;;;;;;5077304;28;20019;-72
2022/04/08 04:41:54;;;;;;;;;;;;;;;;;;5083091;28;19928;-73
2022/04/08 04:44:21;;;;;;;;;;;;;;;;;;5079271;28;19924;-73
2022/04/08 04:46:48;;;;;;;;;;;;;;;;;;5081392;28;20005;-74
2022/04/08 04:49:15;;;;;;;;;;;;;;;;;;5084846;28;19928;-73
2022/04/08 04:51:42;;;;;;;;;;;;;;;;;;5083704;28;20397;-73
2022/04/08 04:54:09;;;;;;;;;;;;;;;;;;5081146;28;20375;-74
2022/04/08 04:56:36;;;;;;;;;;;;;;;;;;5081693;28;20295;-72
2022/04/08 04:59:03;;;;;;;;;;;;;;;;;;5079551;28;20399;-71
2022/04/08 05:01:29;;;;;;;;;;;;;;;;;;5083001;28;19924;-71
2022/04/08 05:03:56;;;;;;;;;;;;;;;;;;5083199;28;19932;-72
2022/04/08 05:06:24;;;;;;;;;;;;;;;;;;5082381;28;19928;-71
2022/04/08 05:08:51;;;;;;;;;;;;;;;;;;5074350;28;19963;-71
2022/04/08 05:11:18;;;;;;;;;;;;;;;;;;5079478;28;19938;-75
2022/04/08 05:13:45;;;;;;;;;;;;;;;;;;5077090;28;19935;-71
2022/04/08 05:16:12;;;;;;;;;;;;;;;;;;5079127;28;19928;-73
2022/04/08 05:18:39;;;;;;;;;;;;;;;;;;5074106;28;20291;-72
2022/04/08 05:21:06;;;;;;;;;;;;;;;;;;5084360;28;20469;-73
2022/04/08 05:23:33;;;;;;;;;;;;;;;;;;5083844;28;19928;-73
2022/04/08 05:26:00;;;;;;;;;;;;;;;;;;5076987;28;19933;-72
2022/04/08 05:28:27;;;;;;;;;;;;;;;;;;5080509;28;19938;-72
2022/04/08 05:30:54;;;;;;;;;;;;;;;;;;5080095;28;21365;-73
2022/04/08 05:33:21;;;;;;;;;;;;;;;;;;5082114;28;19935;-73
2022/04/08 05:35:48;;;;;;;;;;;;;;;;;;5078134;28;19962;-73
2022/04/08 05:38:15;;;;;;;;;;;;;;;;;;5078772;28;19958;-72
2022/04/08 05:40:43;;;;;;;;;;;;;;;;;;5086564;28;20038;-73
2022/04/08 05:43:10;;;;;;;;;;;;;;;;;;5080221;28;19943;-73
2022/04/08 05:45:37;;;;;;;;;;;;;;;;;;5073482;28;19928;-74
2022/04/08 05:48:06;;;;;;;;;;;;;;;;;;5078463;28;20011;-74
2022/04/08 05:50:33;;;;;;;;;;;;;;;;;;5078498;28;19935;-73
2022/04/08 05:53:00;;;;;;;;;;;;;;;;;;5077198;28;20076;-73
2022/04/08 05:55:27;;;;;;;;;;;;;;;;;;5080697;28;20080;-72
2022/04/08 05:57:56;;;;;;;;;;;;;;;;;;5077467;28;20102;-72
2022/04/08 06:00:23;;;;;;;;;;;;;;;;;;5079629;28;19939;-72
2022/04/08 06:02:50;;;;;;;;;;;;;;;;;;5080166;28;22019;-72
2022/04/08 06:05:18;;;;;;;;;;;;;;;;;;5079733;28;19975;-72
2022/04/08 06:07:45;;;;;;;;;;;;;;;;;;5079223;28;19924;-72
2022/04/08 06:10:12;;;;;;;;;;;;;;;;;;5079681;28;19991;-73
2022/04/08 06:12:39;;;;;;;;;;;;;;;;;;5080420;28;20013;-73
2022/04/08 06:15:06;;;;;;;;;;;;;;;;;;5077410;28;19924;-73
2022/04/08 06:17:33;;;;;;;;;;;;;;;;;;5082011;28;19938;-73
2022/04/08 06:20:00;;;;;;;;;;;;;;;;;;5078359;28;19938;-72
2022/04/08 06:22:27;;;;;;;;;;;;;;;;;;5080033;28;19928;-72
2022/04/08 06:24:54;;;;;;;;;;;;;;;;;;5078764;28;19928;-72
2022/04/08 06:27:21;;;;;;;;;;;;;;;;;;5079240;28;19924;-72
2022/04/08 06:29:48;;;;;;;;;;;;;;;;;;5076471;28;20050;-72
2022/04/08 06:32:15;;;;;;;;;;;;;;;;;;5077681;28;19924;-72
2022/04/08 06:34:42;;;;;;;;;;;;;;;;;;5077761;28;19924;-72
2022/04/08 06:37:09;;;;;;;;;;;;;;;;;;5075438;28;19928;-72
2022/04/08 06:39:36;;;;;;;;;;;;;;;;;;5077402;28;19946;-72
2022/04/08 06:42:03;;;;;;;;;;;;;;;;;;5079380;28;19966;-71
2022/04/08 06:44:30;;;;;;;;;;;;;;;;;;5082237;28;19928;-74
2022/04/08 06:47:00;;;;;;;;;;;;;;;;;;5082609;28;19951;-73
2022/04/08 06:49:27;;;;;;;;;;;;;;;;;;5078992;28;19928;-72
2022/04/08 06:51:58;;;;;;;;;;;;;;;;;;5081849;28;20045;-75
2022/04/08 06:54:25;;;;;;;;;;;;;;;;;;5075427;28;20349;-75
2022/04/08 06:56:52;;;;;;;;;;;;;;;;;;5081952;28;19932;-74
2022/04/08 06:59:19;;;;;;;;;;;;;;;;;;5081003;28;19928;-76
2022/04/08 07:01:46;;;;;;;;;;;;;;;;;;5080909;28;20385;-74
2022/04/08 07:04:13;;;;;;;;;;;;;;;;;;5074306;28;20384;-74
2022/04/08 07:06:40;;;;;;;;;;;;;;;;;;5080069;28;19929;-74
2022/04/08 07:09:07;;;;;;;;;;;;;;;;;;5077485;28;19935;-75
2022/04/08 07:11:34;;;;;;;;;;;;;;;;;;5085390;28;20036;-74
2022/04/08 07:14:04;;;;;;;;;;;;;;;;;;5079814;28;19923;-75
2022/04/08 07:16:30;;;;;;;;;;;;;;;;;;5079486;28;19928;-75
2022/04/08 07:18:57;;;;;;;;;;;;;;;;;;5078467;28;19927;-75
2022/04/08 07:21:26;;;;;;;;;;;;;;;;;;5077642;28;19924;-75
2022/04/08 07:23:52;;;;;;;;;;;;;;;;;;5074382;28;19954;-75
2022/04/08 07:26:21;;;;;;;;;;;;;;;;;;5087101;28;19932;-75
2022/04/08 07:28:49;;;;;;;;;;;;;;;;;;5087477;28;19963;-75
2022/04/08 07:31:16;;;;;;;;;;;;;;;;;;5082968;28;19996;-75
2022/04/08 07:33:43;;;;;;;;;;;;;;;;;;5095825;28;19932;-74
2022/04/08 07:36:11;;;;;;;;;;;;;;;;;;5090552;28;19924;-75
2022/04/08 07:38:38;;;;;;;;;;;;;;;;;;5089543;28;19935;-74
2022/04/08 07:41:06;;;;;;;;;;;;;;;;;;5093320;28;20003;-74
2022/04/08 07:43:33;;;;;;;;;;;;;;;;;;5089324;28;20387;-74
2022/04/08 07:46:00;;;;;;;;;;;;;;;;;;5087474;28;20391;-70
2022/04/08 07:48:27;;;;;;;;;;;;;;;;;;5091579;28;19936;-73
2022/04/08 07:50:54;;;;;;;;;;;;;;;;;;5083514;28;19925;-74
2022/04/08 07:53:23;;;;;;;;;;;;;;;;;;5082620;28;19932;-74
2022/04/08 07:55:52;;;;;;;;;;;;;;;;;;5079848;28;19932;-74
2022/04/08 07:58:19;;;;;;;;;;;;;;;;;;5081617;28;19928;-74
2022/04/08 08:00:46;;;;;;;;;;;;;;;;;;5085927;28;20306;-75
2022/04/08 08:03:15;;;;;;;;;;;;;;;;;;5077952;28;20023;-74
2022/04/08 08:05:42;;;;;;;;;;;;;;;;;;5084062;28;19924;-75
2022/04/08 08:08:09;;;;;;;;;;;;;;;;;;5082146;28;19927;-74
2022/04/08 08:10:36;;;;;;;;;;;;;;;;;;5082842;28;19924;-75
2022/04/08 08:13:03;;;;;;;;;;;;;;;;;;5083310;28;20415;-74
2022/04/08 08:15:30;;;;;;;;;;;;;;;;;;5078705;28;20291;-74
2022/04/08 08:17:58;;;;;;;;;;;;;;;;;;5083080;28;19924;-74
2022/04/08 08:20:25;;;;;;;;;;;;;;;;;;5087347;28;20383;-77
2022/04/08 08:22:51;;;;;;;;;;;;;;;;;;5088798;28;20014;-75
2022/04/08 08:25:18;;;;;;;;;;;;;;;;;;5086195;28;19935;-75
2022/04/08 08:27:45;;;;;;;;;;;;;;;;;;5080946;28;19932;-74
2022/04/08 08:30:12;;;;;;;;;;;;;;;;;;5076894;28;19931;-75
2022/04/08 08:32:39;;;;;;;;;;;;;;;;;;5083528;28;19949;-76
2022/04/08 08:35:07;;;;;;;;;;;;;;;;;;5079303;28;19924;-75
2022/04/08 08:37:34;;;;;;;;;;;;;;;;;;5083122;28;19931;-75
2022/04/08 08:40:01;;;;;;;;;;;;;;;;;;5076888;28;19924;-76
2022/04/08 08:42:28;;;;;;;;;;;;;;;;;;5074459;28;19943;-76
2022/04/08 08:44:55;;;;;;;;;;;;;;;;;;5082445;28;20058;-79
2022/04/08 08:47:22;;;;;;;;;;;;;;;;;;5083407;28;20031;-75
2022/04/08 08:49:49;;;;;;;;;;;;;;;;;;5087157;28;20394;-76
2022/04/08 08:52:16;;;;;;;;;;;;;;;;;;5082385;28;19967;-76
2022/04/08 08:54:43;;;;;;;;;;;;;;;;;;5085900;28;19928;-75
2022/04/08 08:57:10;;;;;;;;;;;;;;;;;;5083533;28;19929;-75
2022/04/08 08:59:37;;;;;;;;;;;;;;;;;;5081287;28;19924;-76
2022/04/08 09:02:05;;;;;;;;;;;;;;;;;;5091121;28;19991;-77
2022/04/08 09:04:33;;;;;;;;;;;;;;;;;;5098167;28;19924;-77
2022/04/08 09:07:00;;;;;;;;;;;;;;;;;;5106674;28;19924;-81
2022/04/08 09:09:27;;;;;;;;;;;;;;;;;;5098806;28;20547;-76
2022/04/08 09:11:54;;;;;;;;;;;;;;;;;;5075955;28;19924;-76
2022/04/08 09:14:21;;;;;;;;;;;;;;;;;;5077299;28;19936;-75
2022/04/08 09:16:48;;;;;;;;;;;;;;;;;;5087949;28;20011;-75
2022/04/08 09:19:15;;;;;;;;;;;;;;;;;;5080666;28;19935;-77
2022/04/08 09:21:42;;;;;;;;;;;;;;;;;;5089885;28;20011;-77
2022/04/08 09:24:10;;;;;;;;;;;;;;;;;;5103827;28;19952;-80
2022/04/08 09:26:37;;;;;;;;;;;;;;;;;;5111073;28;19963;-80
2022/04/08 09:29:04;;;;;;;;;;;;;;;;;;5113797;28;20241;-80
2022/04/08 09:31:32;;;;;;;;;;;;;;;;;;5106200;28;19939;-79
2022/04/08 09:33:59;;;;;;;;;;;;;;;;;;5102714;28;19924;-78
2022/04/08 09:36:26;;;;;;;;;;;;;;;;;;5100025;28;19924;-75
2022/04/08 09:38:53;;;;;;;;;;;;;;;;;;5081048;28;20291;-74
2022/04/08 09:41:20;;;;;;;;;;;;;;;;;;5079954;28;20010;-76
2022/04/08 09:43:47;;;;;;;;;;;;;;;;;;5077823;28;19946;-75
2022/04/08 09:46:14;;;;;;;;;;;;;;;;;;5075715;28;19923;-75
2022/04/08 09:48:41;;;;;;;;;;;;;;;;;;5082988;28;19924;-75
2022/04/08 09:51:10;;;;;;;;;;;;;;;;;;5073595;28;19947;-75
2022/04/08 09:53:37;;;;;;;;;;;;;;;;;;5076223;28;19931;-76
2022/04/08 09:56:04;;;;;;;;;;;;;;;;;;5082029;28;19924;-74
2022/04/08 09:58:31;;;;;;;;;;;;;;;;;;5075681;28;19931;-75
2022/04/08 10:00:58;;;;;;;;;;;;;;;;;;5082082;28;20019;-75
2022/04/08 10:03:25;;;;;;;;;;;;;;;;;;5079800;28;19928;-75
2022/04/08 10:05:52;;;;;;;;;;;;;;;;;;5080041;28;19979;-76
2022/04/08 10:08:19;;;;;;;;;;;;;;;;;;5080455;28;19932;-80
2022/04/08 10:10:48;;;;;;;;;;;;;;;;;;5081812;28;19975;-76
2022/04/08 10:13:15;;;;;;;;;;;;;;;;;;5074840;28;19929;-75
2022/04/08 10:15:42;;;;;;;;;;;;;;;;;;5080463;28;19971;-75
2022/04/08 10:18:12;;;;;;;;;;;;;;;;;;5076786;28;20290;-75
2022/04/08 10:20:39;;;;;;;;;;;;;;;;;;5074781;28;19924;-76
2022/04/08 10:23:06;;;;;;;;;;;;;;;;;;5078940;28;19964;-77
2022/04/08 10:25:33;;;;;;;;;;;;;;;;;;5081889;28;19947;-74
2022/04/08 10:28:00;;;;;;;;;;;;;;;;;;5081408;28;19935;-74
2022/04/08 10:30:30;;;;;;;;;;;;;;;;;;5079843;28;19924;-73
2022/04/08 10:32:57;;;;;;;;;;;;;;;;;;5080403;28;19932;-74
2022/04/08 10:35:24;;;;;;;;;;;;;;;;;;5081101;28;19924;-73
2022/04/08 10:37:51;;;;;;;;;;;;;;;;;;5080967;28;19939;-74
2022/04/08 10:40:18;;;;;;;;;;;;;;;;;;5082890;28;19924;-75
2022/04/08 10:42:45;;;;;;;;;;;;;;;;;;5085049;28;19927;-75
2022/04/08 10:45:12;;;;;;;;;;;;;;;;;;5077348;28;19924;-74
2022/04/08 10:47:39;;;;;;;;;;;;;;;;;;5081360;28;19924;-75
2022/04/08 10:50:07;;;;;;;;;;;;;;;;;;5078002;28;20027;-76
2022/04/08 10:52:34;;;;;;;;;;;;;;;;;;5077663;28;19935;-75
2022/04/08 10:55:01;;;;;;;;;;;;;;;;;;5077506;28;20000;-76
2022/04/08 10:57:28;;;;;;;;;;;;;;;;;;5075623;28;19932;-76
2022/04/08 10:59:55;;;;;;;;;;;;;;;;;;5078531;28;19932;-77
2022/04/08 11:02:24;;;;;;;;;;;;;;;;;;5074263;28;19924;-74
2022/04/08 11:04:51;;;;;;;;;;;;;;;;;;5079100;28;19925;-74
2022/04/08 11:07:18;;;;;;;;;;;;;;;;;;5079240;28;19924;-75
2022/04/08 11:09:45;;;;;;;;;;;;;;;;;;5083485;28;19948;-75
2022/04/08 11:12:12;;;;;;;;;;;;;;;;;;5090019;28;19967;-74
2022/04/08 11:14:39;;;;;;;;;;;;;;;;;;5087859;28;20032;-75
2022/04/08 11:17:06;;;;;;;;;;;;;;;;;;5086418;28;20458;-75
2022/04/08 11:19:33;;;;;;;;;;;;;;;;;;5082801;28;19938;-73
2022/04/08 11:22:00;;;;;;;;;;;;;;;;;;5084770;28;20043;-79
2022/04/08 11:24:27;;;;;;;;;;;;;;;;;;5080190;28;20257;-76
2022/04/08 11:26:54;;;;;;;;;;;;;;;;;;5077405;28;20015;-76
2022/04/08 11:29:22;;;;;;;;;;;;;;;;;;5078601;28;19924;-76
2022/04/08 11:31:48;;;;;;;;;;;;;;;;;;5083547;28;19928;-76
2022/04/08 11:34:15;;;;;;;;;;;;;;;;;;5080351;28;19988;-75
2022/04/08 11:36:42;;;;;;;;;;;;;;;;;;5080231;28;19961;-74
2022/04/08 11:39:09;;;;;;;;;;;;;;;;;;5080364;28;20390;-76
2022/04/08 11:41:36;;;;;;;;;;;;;;;;;;5082568;28;19973;-77
2022/04/08 11:44:04;;;;;;;;;;;;;;;;;;5087773;28;20234;-76
2022/04/08 11:46:31;;;;;;;;;;;;;;;;;;5085068;28;19964;-78
2022/04/08 11:49:00;;;;;;;;;;;;;;;;;;5084373;28;19930;-76
2022/04/08 11:51:27;;;;;;;;;;;;;;;;;;5112000;22;20185;-77
2022/04/08 11:53:54;;;;;;;;;;;;;;;;;;5114188;27;19928;-77
2022/04/08 11:56:21;;;;;;;;;;;;;;;;;;5097961;22;19924;-76
2022/04/08 11:58:48;;;;;;;;;;;;;;;;;;5088697;22;19937;-77
2022/04/08 12:01:15;;;;;;;;;;;;;;;;;;5071056;28;19932;-75
2022/04/08 12:03:42;;;;;;;;;;;;;;;;;;5075677;28;20374;-74
2022/04/08 12:06:09;;;;;;;;;;;;;;;;;;5072379;28;19935;-73
2022/04/08 12:08:36;;;;;;;;;;;;;;;;;;5068669;28;19986;-73
2022/04/08 12:11:03;;;;;;;;;;;;;;;;;;5062409;28;19928;-73
2022/04/08 12:13:30;;;;;;;;;;;;;;;;;;5066941;28;19932;-74
2022/04/08 12:15:57;;;;;;;;;;;;;;;;;;5068761;28;19947;-73
2022/04/08 12:18:24;;;;;;;;;;;;;;;;;;5062803;28;20031;-74
2022/04/08 12:20:52;;;;;;;;;;;;;;;;;;5062919;28;19924;-78
2022/04/08 12:23:19;;;;;;;;;;;;;;;;;;5065475;28;19960;-77
2022/04/08 12:25:46;;;;;;;;;;;;;;;;;;5066209;28;19928;-77
2022/04/08 12:28:13;;;;;;;;;;;;;;;;;;5071994;28;19925;-74
2022/04/08 12:30:40;;;;;;;;;;;;;;;;;;5069011;28;19928;-73
2022/04/08 12:33:07;;;;;;;;;;;;;;;;;;5068453;28;19964;-77
2022/04/08 12:35:34;;;;;;;;;;;;;;;;;;5066191;28;19928;-78
2022/04/08 12:38:04;;;;;;;;;;;;;;;;;;5067242;28;20067;-75
2022/04/08 12:40:31;;;;;;;;;;;;;;;;;;5059300;28;19935;-75
2022/04/08 12:42:58;;;;;;;;;;;;;;;;;;5066194;28;19929;-75
2022/04/08 12:45:25;;;;;;;;;;;;;;;;;;5066646;28;20731;-84
2022/04/08 12:47:52;;;;;;;;;;;;;;;;;;5072737;28;19931;-87
2022/04/08 12:50:19;;;;;;;;;;;;;;;;;;5069666;28;19978;-89
2022/04/08 12:52:46;;;;;;;;;;;;;;;;;;5068309;28;20023;-83
2022/04/08 12:55:17;;;;;;;;;;;;;;;;;;5088952;28;19931;-86
2022/04/08 12:57:44;;;;;;;;;;;;;;;;;;5087867;28;19980;-80
2022/04/08 13:00:12;;;;;;;;;;;;;;;;;;5206499;22;19928;-79
2022/04/08 13:02:39;;;;;;;;;;;;;;;;;;5102043;28;19924;-81
2022/04/08 13:05:06;;;;;;;;;;;;;;;;;;5087532;28;19930;-83
2022/04/08 13:07:33;;;;;;;;;;;;;;;;;;5083628;28;20492;-83
2022/04/08 13:10:00;;;;;;;;;;;;;;;;;;5085935;28;19924;-89
2022/04/08 13:12:27;;;;;;;;;;;;;;;;;;5084872;28;19932;-85
2022/04/08 13:14:54;;;;;;;;;;;;;;;;;;5080352;28;20360;-80
2022/04/08 13:17:21;;;;;;;;;;;;;;;;;;5079262;28;20022;-79
2022/04/08 13:19:48;;;;;;;;;;;;;;;;;;5079552;28;19938;-78
2022/04/08 13:22:16;;;;;;;;;;;;;;;;;;5088884;28;20014;-80
2022/04/08 13:24:43;;;;;;;;;;;;;;;;;;5088010;28;19978;-86
2022/04/08 13:27:10;;;;;;;;;;;;;;;;;;5081486;28;19993;-85
2022/04/08 13:29:37;;;;;;;;;;;;;;;;;;5087764;28;20018;-85
2022/04/08 13:32:04;;;;;;;;;;;;;;;;;;5087178;28;20019;-83
2022/04/08 13:34:31;;;;;;;;;;;;;;;;;;5080241;28;19925;-86
2022/04/08 13:36:58;;;;;;;;;;;;;;;;;;5086026;28;19928;-81
2022/04/08 13:39:25;;;;;;;;;;;;;;;;;;5080420;28;20018;-81
2022/04/08 13:41:52;;;;;;;;;;;;;;;;;;5085750;28;19951;-78
2022/04/08 13:44:21;;;;;;;;;;;;;;;;;;5085817;28;20375;-80
2022/04/08 13:46:48;;;;;;;;;;;;;;;;;;5084182;28;20018;-84
2022/04/08 13:49:15;;;;;;;;;;;;;;;;;;5084835;28;20015;-83
2022/04/08 13:51:42;;;;;;;;;;;;;;;;;;5084510;28;19963;-82
2022/04/08 13:54:10;;;;;;;;;;;;;;;;;;5084008;28;19950;-86
2022/04/08 13:56:37;;;;;;;;;;;;;;;;;;5095941;28;19923;-84
2022/04/08 13:59:04;;;;;;;;;;;;;;;;;;5088643;28;19938;-83
2022/04/08 14:01:32;;;;;;;;;;;;;;;;;;5086463;28;19975;-80
2022/04/08 14:04:00;;;;;;;;;;;;;;;;;;5086304;28;19955;-80
2022/04/08 14:06:27;;;;;;;;;;;;;;;;;;5078557;28;19957;-87
2022/04/08 14:08:54;;;;;;;;;;;;;;;;;;5080427;28;19929;-83
2022/04/08 14:11:21;;;;;;;;;;;;;;;;;;5087654;28;20018;-80
2022/04/08 14:13:48;;;;;;;;;;;;;;;;;;5090918;28;20035;-81
2022/04/08 14:16:15;;;;;;;;;;;;;;;;;;5092456;28;20478;-76
2022/04/08 14:18:42;;;;;;;;;;;;;;;;;;5090215;28;19969;-78
2022/04/08 14:21:08;;;;;;;;;;;;;;;;;;5094847;28;19955;-80
2022/04/08 14:23:35;;;;;;;;;;;;;;;;;;5092455;28;19932;-79
2022/04/08 14:26:02;;;;;;;;;;;;;;;;;;5092103;28;19946;-81
2022/04/08 14:28:29;;;;;;;;;;;;;;;;;;5091444;28;20014;-78
2022/04/08 14:30:56;;;;;;;;;;;;;;;;;;5090292;28;19967;-77
2022/04/08 14:33:23;;;;;;;;;;;;;;;;;;5092579;28;20024;-76
2022/04/08 14:35:50;;;;;;;;;;;;;;;;;;5090044;28;19924;-78
2022/04/08 14:38:17;;;;;;;;;;;;;;;;;;5088946;28;19932;-76
2022/04/08 14:40:46;;;;;;;;;;;;;;;;;;5084562;28;19927;-76
2022/04/08 14:43:13;;;;;;;;;;;;;;;;;;5084602;28;20345;-76
2022/04/08 14:45:40;;;;;;;;;;;;;;;;;;5088702;28;20381;-75
2022/04/08 14:48:07;;;;;;;;;;;;;;;;;;5082645;28;19939;-76
2022/04/08 14:50:34;;;;;;;;;;;;;;;;;;5084808;28;19977;-76
2022/04/08 14:53:01;;;;;;;;;;;;;;;;;;5089636;28;19924;-75
2022/04/08 14:55:28;;;;;;;;;;;;;;;;;;5086372;28;20013;-76
2022/04/08 14:57:55;;;;;;;;;;;;;;;;;;5089341;28;19935;-76
2022/04/08 15:00:22;;;;;;;;;;;;;;;;;;5087872;28;20291;-79
2022/04/08 15:02:50;;;;;;;;;;;;;;;;;;5090746;28;20403;-77
2022/04/08 15:05:17;;;;;;;;;;;;;;;;;;5087869;28;20015;-76
2022/04/08 15:07:44;;;;;;;;;;;;;;;;;;5089134;28;19962;-77
2022/04/08 15:10:11;;;;;;;;;;;;;;;;;;5081688;28;19933;-76
2022/04/08 15:12:38;;;;;;;;;;;;;;;;;;5085118;28;20334;-77
2022/04/08 15:15:05;;;;;;;;;;;;;;;;;;5083653;28;20367;-77
2022/04/08 15:17:32;;;;;;;;;;;;;;;;;;5082300;28;19939;-76
2022/04/08 15:19:59;;;;;;;;;;;;;;;;;;5080742;28;20444;-74
2022/04/08 15:22:26;;;;;;;;;;;;;;;;;;5086438;28;19930;-74
2022/04/08 15:24:53;;;;;;;;;;;;;;;;;;5087381;28;19924;-74
2022/04/08 15:27:20;;;;;;;;;;;;;;;;;;5080398;28;20010;-74
2022/04/08 15:29:47;;;;;;;;;;;;;;;;;;5088100;28;19930;-77
2022/04/08 15:32:14;;;;;;;;;;;;;;;;;;5093816;28;19977;-77
2022/04/08 15:34:41;;;;;;;;;;;;;;;;;;5086263;28;19946;-73
2022/04/08 15:37:08;;;;;;;;;;;;;;;;;;5090332;28;19928;-73
2022/04/08 15:39:35;;;;;;;;;;;;;;;;;;5086289;28;19960;-74
2022/04/08 15:42:02;;;;;;;;;;;;;;;;;;5088932;28;19924;-74
2022/04/08 15:44:29;;;;;;;;;;;;;;;;;;5088150;28;19959;-75
2022/04/08 15:46:56;;;;;;;;;;;;;;;;;;5090823;28;19924;-75
2022/04/08 15:49:24;;;;;;;;;;;;;;;;;;5087088;28;20019;-76
2022/04/08 15:51:51;;;;;;;;;;;;;;;;;;5091300;28;19947;-74
2022/04/08 15:54:18;;;;;;;;;;;;;;;;;;5093331;28;19970;-75
2022/04/08 15:56:45;;;;;;;;;;;;;;;;;;5093568;28;19924;-74
2022/04/08 15:59:12;;;;;;;;;;;;;;;;;;5084224;28;20031;-75
2022/04/08 16:01:40;;;;;;;;;;;;;;;;;;5089580;28;19928;-74
2022/04/08 16:04:07;;;;;;;;;;;;;;;;;;5092678;28;19939;-75
2022/04/08 16:06:34;;;;;;;;;;;;;;;;;;5093968;28;19924;-75
2022/04/08 16:09:01;;;;;;;;;;;;;;;;;;5090246;28;20013;-74
2022/04/08 16:11:28;;;;;;;;;;;;;;;;;;5083320;28;19936;-74
2022/04/08 16:13:55;;;;;;;;;;;;;;;;;;5092192;28;19924;-75
2022/04/08 16:16:22;;;;;;;;;;;;;;;;;;5093471;28;19924;-75
2022/04/08 16:18:49;;;;;;;;;;;;;;;;;;5094616;28;20011;-75
2022/04/08 16:21:16;;;;;;;;;;;;;;;;;;5093278;28;19963;-75
2022/04/08 16:23:43;;;;;;;;;;;;;;;;;;5093812;28;20021;-75
2022/04/08 16:26:10;;;;;;;;;;;;;;;;;;5090504;28;20066;-74
2022/04/08 16:28:37;;;;;;;;;;;;;;;;;;5096033;28;19951;-75
2022/04/08 16:31:04;;;;;;;;;;;;;;;;;;5089081;28;20071;-73
2022/04/08 16:33:32;;;;;;;;;;;;;;;;;;5092641;28;19924;-75
2022/04/08 16:35:59;;;;;;;;;;;;;;;;;;5090151;28;19935;-75
2022/04/08 16:38:26;;;;;;;;;;;;;;;;;;5089688;28;19924;-73
2022/04/08 16:40:53;;;;;;;;;;;;;;;;;;5089867;28;19931;-73
2022/04/08 16:43:20;;;;;;;;;;;;;;;;;;5096532;28;20294;-73
2022/04/08 16:45:47;;;;;;;;;;;;;;;;;;5096545;28;19998;-74